This is the latest recevied weather packets stored in our database for station/object N3WMC. If no packets are shown the sender has not sent any weather packets the latest 10 day(s).
| Time | Temp. | Humidity | Pressure | Rain* | Wind** | Luminosity | Snow |
|---|---|---|---|---|---|---|---|
| 1787680380 | 24.44° C | 64% | 1020.4 hPa | 0 mm | - | 234 W/m² | - |
| 1787680078 | 25° C | 61% | 1020.3 hPa | 0 mm | - | 263 W/m² | - |
| 1787679779 | 25° C | 60% | 1020.3 hPa | 0 mm | - | 576 W/m² | - |
| 1787679474 | 24.44° C | 64% | 1020.4 hPa | 0 mm | - | 339 W/m² | - |
| 1787679169 | 25.56° C | 61% | 1020.3 hPa | 0 mm | - | 325 W/m² | - |
| 1787678864 | 24.44° C | 64% | 1020.7 hPa | 0 mm | - | 872 W/m² | - |
| 1787678564 | 24.44° C | 64% | 1020.6 hPa | 0 mm | - | 329 W/m² | - |
| 1787678258 | 23.89° C | 64% | 1020.6 hPa | 0 mm | - | 295 W/m² | - |
| 1787677953 | 24.44° C | 65% | 1020.6 hPa | 0 mm | - | 304 W/m² | - |
| 1787677648 | 23.89° C | 66% | 1020.8 hPa | 0 mm | - | 270 W/m² | - |
| 1787677342 | 25° C | 64% | 1020.3 hPa | 0 mm | - | 245 W/m² | - |
| 1787677041 | 24.44° C | 66% | 1020.6 hPa | 0 mm | - | 780 W/m² | - |
| 1787676737 | 23.89° C | 65% | 1020.5 hPa | 0 mm | - | 303 W/m² | - |
| 1787676432 | 23.89° C | 66% | 1020.8 hPa | 0 mm | - | 244 W/m² | - |
| 1787676129 | 23.89° C | 63% | 1020.4 hPa | 0 mm | - | 245 W/m² | - |
| 1787675823 | 23.89° C | 64% | 1020.6 hPa | 0 mm | - | 264 W/m² | - |
| 1787675520 | 25° C | 62% | 1020.6 hPa | 0 mm | - | 392 W/m² | - |
| 1787675212 | 23.89° C | 65% | 1020.5 hPa | 0 mm | - | 774 W/m² | - |
| 1787674907 | 24.44° C | 64% | 1020.5 hPa | 0 mm | - | 597 W/m² | - |
| 1787674603 | 23.89° C | 64% | 1021 hPa | 0 mm | - | 534 W/m² | - |
| 1787674298 | 24.44° C | 65% | 1021 hPa | 0 mm | - | 542 W/m² | - |
| 1787673993 | 25° C | 61% | 1020.6 hPa | 0 mm | - | 191 W/m² | - |
| 1787673687 | 23.33° C | 64% | 1020.9 hPa | 0 mm | - | 577 W/m² | - |
| 1787673381 | 24.44° C | 65% | 1020.8 hPa | 0 mm | - | 204 W/m² | - |
| 1787673075 | 25° C | 64% | 1020.7 hPa | 0 mm | - | 711 W/m² | - |
* Rain latest hour (hover to see other rain measurements)
** Current wind speed in m/s (hover to see current wind gust speed)